createdAt,value
2023-03-26T00:00:33.208Z,52.05
2023-03-26T00:01:33.408Z,53.33
2023-03-26T00:02:33.268Z,54.95
2023-03-26T00:03:33.169Z,53.01
2023-03-26T00:04:33.198Z,54.95
2023-03-26T00:05:33.189Z,56.88
2023-03-26T00:06:33.159Z,56.40
2023-03-26T00:07:33.162Z,53.66
2023-03-26T00:08:33.139Z,55.27
2023-03-26T00:09:33.109Z,48.82
2023-03-26T00:10:33.118Z,45.92
2023-03-26T00:11:33.136Z,49.79
2023-03-26T00:12:33.108Z,51.40
2023-03-26T00:13:33.084Z,50.11
2023-03-26T00:14:33.076Z,46.89
2023-03-26T00:15:33.089Z,47.21
2023-03-26T00:16:33.111Z,47.53
2023-03-26T00:17:33.065Z,47.21
2023-03-26T00:18:33.047Z,49.15
2023-03-26T00:19:33.047Z,48.18
2023-03-26T00:20:32.984Z,47.21
2023-03-26T00:21:33.050Z,48.98
2023-03-26T00:22:33.002Z,47.86
2023-03-26T00:23:32.999Z,44.31
2023-03-26T00:24:32.983Z,43.83
2023-03-26T00:25:32.983Z,49.63
2023-03-26T00:26:32.978Z,44.96
2023-03-26T00:27:32.943Z,47.21
2023-03-26T00:28:32.962Z,45.12
2023-03-26T00:29:32.898Z,47.86
2023-03-26T00:30:32.925Z,50.11
2023-03-26T00:31:32.950Z,51.40
2023-03-26T00:32:32.966Z,53.33
2023-03-26T00:33:32.874Z,53.98
2023-03-26T00:34:32.886Z,52.37
2023-03-26T00:35:32.923Z,49.47
2023-03-26T00:36:32.836Z,48.66
2023-03-26T00:37:32.848Z,49.63
2023-03-26T00:38:32.844Z,47.53
2023-03-26T00:39:32.809Z,48.82
2023-03-26T00:40:32.810Z,48.18
2023-03-26T00:41:32.853Z,50.60
2023-03-26T00:42:32.791Z,46.25
2023-03-26T00:43:32.818Z,50.11
2023-03-26T00:44:32.777Z,48.98
2023-03-26T00:45:32.777Z,49.31
2023-03-26T00:46:32.832Z,48.98
2023-03-26T00:47:32.752Z,51.08
2023-03-26T00:48:44.517Z,50.43
2023-03-26T00:49:34.739Z,52.69
2023-03-26T00:50:32.736Z,53.01
2023-03-26T00:51:32.712Z,50.43
2023-03-26T00:52:33.124Z,54.62
2023-03-26T00:53:32.732Z,51.72
2023-03-26T00:54:32.681Z,50.43
2023-03-26T00:55:32.669Z,53.50
2023-03-26T00:56:32.712Z,49.79
2023-03-26T00:57:35.809Z,53.50
2023-03-26T00:58:33.656Z,48.98
2023-03-26T00:59:32.649Z,46.73
2023-03-26T01:00:32.595Z,48.82
2023-03-26T01:01:32.681Z,46.25
2023-03-26T01:02:32.672Z,44.79
2023-03-26T01:03:32.615Z,46.25
2023-03-26T01:04:32.781Z,46.25
2023-03-26T01:05:32.596Z,51.40
2023-03-26T01:06:32.549Z,48.02
2023-03-26T01:07:32.529Z,46.41
2023-03-26T01:08:32.523Z,49.47
2023-03-26T01:09:33.522Z,44.31
2023-03-26T01:10:32.518Z,45.12
2023-03-26T01:11:32.521Z,44.96
2023-03-26T01:12:32.525Z,44.79
2023-03-26T01:13:32.469Z,44.15
2023-03-26T01:14:32.464Z,44.15
2023-03-26T01:15:32.502Z,44.15
2023-03-26T01:16:32.418Z,48.50
2023-03-26T01:17:32.484Z,45.60
2023-03-26T01:18:32.454Z,45.60
2023-03-26T01:19:32.398Z,44.96
2023-03-26T01:20:32.390Z,45.12
2023-03-26T01:21:32.402Z,47.70
2023-03-26T01:22:32.402Z,50.11
2023-03-26T01:23:32.349Z,45.60
2023-03-26T01:24:32.382Z,43.67
2023-03-26T01:25:32.338Z,44.31
2023-03-26T01:26:32.340Z,46.08
2023-03-26T01:27:32.338Z,45.44
2023-03-26T01:28:32.321Z,45.28
2023-03-26T01:29:32.316Z,45.28
2023-03-26T01:30:32.316Z,45.28
2023-03-26T01:31:32.313Z,43.18
2023-03-26T01:32:32.390Z,44.96
2023-03-26T01:33:32.390Z,43.99
2023-03-26T01:34:32.299Z,42.54
2023-03-26T01:35:32.249Z,42.86
2023-03-26T01:36:32.233Z,42.70
2023-03-26T01:37:32.277Z,48.98
2023-03-26T01:38:32.245Z,45.12
2023-03-26T01:39:32.227Z,41.73
2023-03-26T01:40:32.249Z,43.18
2023-03-26T01:41:33.166Z,47.37
2023-03-26T01:42:32.176Z,42.38
2023-03-26T01:43:32.177Z,42.22
2023-03-26T01:44:32.191Z,46.41
2023-03-26T01:45:32.149Z,46.08
2023-03-26T01:46:32.171Z,47.53
2023-03-26T01:47:32.148Z,43.51
2023-03-26T01:48:32.131Z,44.15
2023-03-26T01:49:32.085Z,44.47
2023-03-26T01:50:32.096Z,46.25
2023-03-26T01:51:32.107Z,46.73
2023-03-26T01:52:32.119Z,44.47
2023-03-26T01:53:32.064Z,43.99
2023-03-26T01:54:32.067Z,45.92
2023-03-26T01:55:32.079Z,44.31
2023-03-26T01:56:32.095Z,48.66
2023-03-26T01:57:32.029Z,45.76
2023-03-26T01:58:32.001Z,47.21
2023-03-26T01:59:31.994Z,45.12
2023-03-26T02:00:31.987Z,43.51
2023-03-26T02:01:32.030Z,42.22
2023-03-26T02:02:32.132Z,49.63
2023-03-26T02:03:32.015Z,47.53
2023-03-26T02:04:31.972Z,45.76
2023-03-26T02:05:31.935Z,44.79
2023-03-26T02:06:31.933Z,44.63
2023-03-26T02:07:31.937Z,43.51
2023-03-26T02:08:31.935Z,49.31
2023-03-26T02:09:31.878Z,45.12
2023-03-26T02:10:31.875Z,44.79
2023-03-26T02:11:35.383Z,44.15
2023-03-26T02:12:32.870Z,42.86
2023-03-26T02:13:31.880Z,45.28
2023-03-26T02:14:31.846Z,46.08
2023-03-26T02:15:31.821Z,39.96
2023-03-26T02:16:31.894Z,46.25
2023-03-26T02:17:31.865Z,44.15
2023-03-26T02:18:31.817Z,43.83
2023-03-26T02:19:31.787Z,44.96
2023-03-26T02:20:31.784Z,42.86
2023-03-26T02:21:31.792Z,41.09
2023-03-26T02:22:31.765Z,41.89
2023-03-26T02:23:31.719Z,45.92
2023-03-26T02:24:31.729Z,40.77
2023-03-26T02:25:31.746Z,43.18
2023-03-26T02:26:31.737Z,43.83
2023-03-26T02:27:31.677Z,43.51
2023-03-26T02:28:31.762Z,41.25
2023-03-26T02:29:31.664Z,42.54
2023-03-26T02:30:31.684Z,43.67
2023-03-26T02:31:31.719Z,45.44
2023-03-26T02:32:31.682Z,45.28
2023-03-26T02:33:31.614Z,43.99
2023-03-26T02:34:31.627Z,42.06
2023-03-26T02:35:31.727Z,43.99
2023-03-26T02:36:31.628Z,43.99
2023-03-26T02:37:31.626Z,44.63
2023-03-26T02:38:31.584Z,42.22
2023-03-26T02:39:31.552Z,46.25
2023-03-26T02:40:31.578Z,46.73
2023-03-26T02:41:31.586Z,45.60
2023-03-26T02:42:31.552Z,44.79
2023-03-26T02:43:31.510Z,44.15
2023-03-26T02:44:31.537Z,43.51
2023-03-26T02:45:31.517Z,44.31
2023-03-26T02:46:32.576Z,44.79
2023-03-26T02:47:31.545Z,41.57
2023-03-26T02:48:31.492Z,41.25
2023-03-26T02:49:31.477Z,40.61
2023-03-26T02:50:31.478Z,42.06
2023-03-26T02:51:31.501Z,42.22
2023-03-26T02:52:31.471Z,43.99
2023-03-26T02:53:31.412Z,45.44
2023-03-26T02:54:31.425Z,43.34
2023-03-26T02:55:31.426Z,43.02
2023-03-26T02:56:31.457Z,43.67
2023-03-26T02:57:31.386Z,44.31
2023-03-26T02:58:31.384Z,43.51
2023-03-26T02:59:31.385Z,43.18
2023-03-26T03:00:31.344Z,42.38
2023-03-26T03:01:31.399Z,41.41
2023-03-26T03:02:31.405Z,45.28
2023-03-26T03:03:31.358Z,46.89
2023-03-26T03:04:31.356Z,44.79
2023-03-26T03:05:31.345Z,44.63
2023-03-26T03:06:31.307Z,46.73
2023-03-26T03:08:03.216Z,45.60
2023-03-26T03:08:31.317Z,52.05
2023-03-26T03:09:31.266Z,46.89
2023-03-26T03:10:31.277Z,45.44
2023-03-26T03:11:31.251Z,45.28
2023-03-26T03:12:31.243Z,44.79
2023-03-26T03:13:31.233Z,43.67
2023-03-26T03:14:31.218Z,50.11
2023-03-26T03:15:31.209Z,40.61
2023-03-26T03:16:31.233Z,42.22
2023-03-26T03:17:31.237Z,43.67
2023-03-26T03:18:31.188Z,45.28
2023-03-26T03:19:31.178Z,43.83
2023-03-26T03:20:31.167Z,46.89
2023-03-26T03:21:31.147Z,47.70
2023-03-26T03:22:32.134Z,44.79
2023-03-26T03:23:31.128Z,42.38
2023-03-26T03:24:31.115Z,42.86
2023-03-26T03:25:31.114Z,43.99
2023-03-26T03:26:31.089Z,46.08
2023-03-26T03:27:31.097Z,43.51
2023-03-26T03:28:31.092Z,42.38
2023-03-26T03:29:31.077Z,44.96
2023-03-26T03:30:31.069Z,44.96
2023-03-26T03:31:31.068Z,44.96
2023-03-26T03:32:31.046Z,43.99
2023-03-26T03:33:31.061Z,44.15
2023-03-26T03:34:31.016Z,48.82
2023-03-26T03:35:31.015Z,42.86
2023-03-26T03:36:31.001Z,45.76
2023-03-26T03:37:30.983Z,44.63
2023-03-26T03:38:30.982Z,43.67
2023-03-26T03:39:30.968Z,44.63
2023-03-26T03:40:30.960Z,43.99
2023-03-26T03:41:30.937Z,43.99
2023-03-26T03:42:30.952Z,42.54
2023-03-26T03:43:30.913Z,44.96
2023-03-26T03:44:30.907Z,45.28
2023-03-26T03:45:30.949Z,45.92
2023-03-26T03:46:30.965Z,47.53
2023-03-26T03:47:30.966Z,45.60
2023-03-26T03:48:30.900Z,43.34
2023-03-26T03:49:30.871Z,44.15
2023-03-26T03:50:31.361Z,47.53
2023-03-26T03:51:30.858Z,48.02
2023-03-26T03:52:30.843Z,48.82
2023-03-26T03:53:30.824Z,43.67
2023-03-26T03:54:30.838Z,42.06
2023-03-26T03:55:30.794Z,42.70
2023-03-26T03:56:30.810Z,42.54
2023-03-26T03:57:30.789Z,44.63
2023-03-26T03:58:30.785Z,42.54
2023-03-26T03:59:30.751Z,42.38
2023-03-26T04:00:30.733Z,42.70
2023-03-26T04:01:30.814Z,42.54
2023-03-26T04:02:30.846Z,41.73
2023-03-26T04:03:33.670Z,41.73
2023-03-26T04:04:30.777Z,43.18
2023-03-26T04:05:30.712Z,44.63
2023-03-26T04:06:30.684Z,46.73
2023-03-26T04:07:30.690Z,47.21
2023-03-26T04:08:30.673Z,45.76
2023-03-26T04:09:30.683Z,43.18
2023-03-26T04:10:30.662Z,44.31
2023-03-26T04:11:30.631Z,42.54
2023-03-26T04:12:30.658Z,41.73
2023-03-26T04:13:30.630Z,43.83
2023-03-26T04:14:30.605Z,44.79
2023-03-26T04:15:30.607Z,43.67
2023-03-26T04:16:30.621Z,43.83
2023-03-26T04:17:30.723Z,42.38
2023-03-26T04:18:30.572Z,42.54
2023-03-26T04:19:30.575Z,42.38
2023-03-26T04:20:30.549Z,44.31
2023-03-26T04:21:30.545Z,46.08
2023-03-26T04:22:30.563Z,46.57
2023-03-26T04:23:30.509Z,45.92
2023-03-26T04:24:30.504Z,46.08
2023-03-26T04:25:30.509Z,43.99
2023-03-26T04:26:30.472Z,44.96
2023-03-26T04:27:30.484Z,44.47
2023-03-26T04:28:30.519Z,44.31
2023-03-26T04:29:30.435Z,45.12
2023-03-26T04:30:30.441Z,48.50
2023-03-26T04:31:30.521Z,46.41
2023-03-26T04:32:30.488Z,47.86
2023-03-26T04:33:30.421Z,47.86
2023-03-26T04:34:30.421Z,45.76
2023-03-26T04:35:30.470Z,44.79
2023-03-26T04:36:30.389Z,48.82
2023-03-26T04:37:30.379Z,48.82
2023-03-26T04:38:30.369Z,46.25
2023-03-26T04:39:30.339Z,43.99
2023-03-26T04:40:30.347Z,47.37
2023-03-26T04:41:30.325Z,45.12
2023-03-26T04:42:30.347Z,46.08
2023-03-26T04:43:30.329Z,45.76
2023-03-26T04:44:30.355Z,44.15
2023-03-26T04:45:30.321Z,43.83
2023-03-26T04:46:30.301Z,45.60
2023-03-26T04:47:30.367Z,42.54
2023-03-26T04:48:30.293Z,42.54
2023-03-26T04:49:30.243Z,46.25
2023-03-26T04:50:30.246Z,43.18
2023-03-26T04:51:30.232Z,45.76
2023-03-26T04:52:30.352Z,47.70
2023-03-26T04:53:30.202Z,47.53
2023-03-26T04:54:30.202Z,44.63
2023-03-26T04:55:30.202Z,46.41
2023-03-26T04:56:30.185Z,44.63
2023-03-26T04:57:30.177Z,46.57
2023-03-26T04:58:30.181Z,46.89
2023-03-26T04:59:30.204Z,44.31
2023-03-26T05:00:30.122Z,46.25
2023-03-26T05:01:30.210Z,46.25
2023-03-26T05:02:30.144Z,44.47
2023-03-26T05:03:30.119Z,45.44
2023-03-26T05:04:30.121Z,47.37
2023-03-26T05:05:30.100Z,48.66
2023-03-26T05:06:30.084Z,43.83
2023-03-26T05:07:30.075Z,43.99
2023-03-26T05:08:30.090Z,43.83
2023-03-26T05:09:30.056Z,48.82
2023-03-26T05:10:30.054Z,46.25
2023-03-26T05:11:30.036Z,46.57
2023-03-26T05:12:30.003Z,46.41
2023-03-26T05:13:30.009Z,47.70
2023-03-26T05:14:30.010Z,44.79
2023-03-26T05:15:30.003Z,44.15
2023-03-26T05:16:30.054Z,44.79
2023-03-26T05:17:29.960Z,44.47
2023-03-26T05:18:29.950Z,45.44
2023-03-26T05:19:29.956Z,45.28
2023-03-26T05:20:29.934Z,44.15
2023-03-26T05:21:29.933Z,43.34
2023-03-26T05:22:29.921Z,45.76
2023-03-26T05:23:29.892Z,45.12
2023-03-26T05:24:29.892Z,43.51
2023-03-26T05:25:29.898Z,45.28
2023-03-26T05:26:29.869Z,45.28
2023-03-26T05:27:29.856Z,47.70
2023-03-26T05:28:29.861Z,46.08
2023-03-26T05:29:29.831Z,48.98
2023-03-26T05:30:29.832Z,47.21
2023-03-26T05:31:29.846Z,47.70
2023-03-26T05:32:29.843Z,45.60
2023-03-26T05:33:29.947Z,46.57
2023-03-26T05:34:29.797Z,47.70
2023-03-26T05:35:29.824Z,49.31
2023-03-26T05:36:29.757Z,46.41
2023-03-26T05:37:29.766Z,46.73
2023-03-26T05:38:29.749Z,48.18
2023-03-26T05:39:29.736Z,48.98
2023-03-26T05:40:29.801Z,46.41
2023-03-26T05:41:29.711Z,47.70
2023-03-26T05:42:29.693Z,43.99
2023-03-26T05:43:29.708Z,45.60
2023-03-26T05:44:29.698Z,46.41
2023-03-26T05:45:29.683Z,44.47
2023-03-26T05:46:29.694Z,46.25
2023-03-26T05:47:29.671Z,44.15
2023-03-26T05:48:29.667Z,44.96
2023-03-26T05:49:29.664Z,46.57
2023-03-26T05:50:29.642Z,45.60
2023-03-26T05:51:29.608Z,45.28
2023-03-26T05:52:29.592Z,44.63
2023-03-26T05:53:29.589Z,44.63
2023-03-26T05:54:29.598Z,47.21
2023-03-26T05:55:29.581Z,49.79
2023-03-26T05:56:29.549Z,48.98
2023-03-26T05:57:29.569Z,47.53
2023-03-26T05:58:29.536Z,46.08
2023-03-26T05:59:29.538Z,45.60
2023-03-26T06:00:29.515Z,48.98
2023-03-26T06:01:29.497Z,49.15
2023-03-26T06:02:29.533Z,47.70
2023-03-26T06:03:29.597Z,50.27
2023-03-26T06:04:29.542Z,50.43
2023-03-26T06:05:29.484Z,47.21
2023-03-26T06:06:30.704Z,48.50
2023-03-26T06:07:29.435Z,48.34
2023-03-26T06:08:29.456Z,47.70
2023-03-26T06:09:29.459Z,49.47
2023-03-26T06:10:29.400Z,49.47
2023-03-26T06:11:29.408Z,48.50
2023-03-26T06:12:29.390Z,50.43
2023-03-26T06:13:29.390Z,48.98
2023-03-26T06:14:29.370Z,48.82
2023-03-26T06:15:29.407Z,47.70
2023-03-26T06:16:29.378Z,48.66
2023-03-26T06:17:29.412Z,45.44
2023-03-26T06:18:29.372Z,46.08
2023-03-26T06:19:29.310Z,49.95
2023-03-26T06:20:29.300Z,50.92
2023-03-26T06:21:29.300Z,50.92
2023-03-26T06:22:29.294Z,46.41
2023-03-26T06:23:29.294Z,48.02
2023-03-26T06:24:29.270Z,44.63
2023-03-26T06:25:29.269Z,45.92
2023-03-26T06:26:29.240Z,45.44
2023-03-26T06:27:29.250Z,46.89
2023-03-26T06:28:29.214Z,46.25
2023-03-26T06:29:29.224Z,50.76
2023-03-26T06:30:29.197Z,49.95
2023-03-26T06:31:29.228Z,48.34
2023-03-26T06:32:29.200Z,47.21
2023-03-26T06:33:29.191Z,48.98
2023-03-26T06:34:29.188Z,51.24
2023-03-26T06:35:29.145Z,49.15
2023-03-26T06:36:29.137Z,48.98
2023-03-26T06:37:29.125Z,50.92
2023-03-26T06:38:29.119Z,48.82
2023-03-26T06:39:30.122Z,49.79
2023-03-26T06:40:29.099Z,49.15
2023-03-26T06:41:29.088Z,48.18
2023-03-26T06:43:06.847Z,49.31
2023-03-26T06:43:30.067Z,47.86
2023-03-26T06:44:29.080Z,49.95
2023-03-26T06:45:29.080Z,51.56
2023-03-26T06:46:29.173Z,49.47
2023-03-26T06:47:29.082Z,48.02
2023-03-26T06:48:29.034Z,46.89
2023-03-26T06:49:29.029Z,45.92
2023-03-26T06:50:29.016Z,48.02
2023-03-26T06:51:29.003Z,48.18
2023-03-26T06:52:28.992Z,49.47
2023-03-26T06:53:28.992Z,47.70
2023-03-26T06:54:28.984Z,44.47
2023-03-26T06:55:28.974Z,44.79
2023-03-26T06:56:28.957Z,48.82
2023-03-26T06:57:28.944Z,47.70
2023-03-26T06:58:28.948Z,45.12
2023-03-26T06:59:28.896Z,44.63
2023-03-26T07:00:28.899Z,45.28
2023-03-26T07:01:28.948Z,46.57
2023-03-26T07:02:28.890Z,45.28
2023-03-26T07:03:28.866Z,48.50
2023-03-26T07:04:28.908Z,44.96
2023-03-26T07:05:28.852Z,44.63
2023-03-26T07:06:28.832Z,45.44
2023-03-26T07:07:28.835Z,43.83
2023-03-26T07:08:28.817Z,48.82
2023-03-26T07:09:28.805Z,48.02
2023-03-26T07:10:28.782Z,45.60
2023-03-26T07:11:28.796Z,47.37
2023-03-26T07:12:28.789Z,47.70
2023-03-26T07:13:28.782Z,47.86
2023-03-26T07:14:28.761Z,47.37
2023-03-26T07:15:28.756Z,47.86
2023-03-26T07:16:28.860Z,47.53
2023-03-26T07:17:28.747Z,47.21
2023-03-26T07:18:29.725Z,47.86
2023-03-26T07:19:28.686Z,45.76
2023-03-26T07:20:28.712Z,45.28
2023-03-26T07:21:28.681Z,47.21
2023-03-26T07:22:28.665Z,47.86
2023-03-26T07:23:28.650Z,46.25
2023-03-26T07:24:28.646Z,50.60
2023-03-26T07:25:28.637Z,45.76
2023-03-26T07:26:28.609Z,48.34
2023-03-26T07:27:28.615Z,48.66
2023-03-26T07:28:28.608Z,48.02
2023-03-26T07:29:28.587Z,47.37
2023-03-26T07:30:28.874Z,47.86
2023-03-26T07:31:28.569Z,48.34
2023-03-26T07:32:28.565Z,49.31
2023-03-26T07:33:28.552Z,47.86
2023-03-26T07:34:28.535Z,49.47
2023-03-26T07:35:28.542Z,48.34
2023-03-26T07:36:28.512Z,48.50
2023-03-26T07:37:28.507Z,48.66
2023-03-26T07:38:28.492Z,49.31
2023-03-26T07:39:28.465Z,46.25
2023-03-26T07:40:28.465Z,50.60
2023-03-26T07:41:28.471Z,47.21
2023-03-26T07:42:28.443Z,45.12
2023-03-26T07:43:28.420Z,49.95
2023-03-26T07:44:28.448Z,48.98
2023-03-26T07:45:28.507Z,50.27
2023-03-26T07:46:28.406Z,50.76
2023-03-26T07:47:28.428Z,51.88
2023-03-26T07:48:28.398Z,50.11
2023-03-26T07:49:28.352Z,51.40
2023-03-26T07:50:28.351Z,50.92
2023-03-26T07:51:28.345Z,52.53
2023-03-26T07:52:28.328Z,54.79
2023-03-26T07:53:28.321Z,50.60
2023-03-26T07:54:28.353Z,49.47
2023-03-26T07:55:28.291Z,53.01
2023-03-26T07:56:29.321Z,53.50
2023-03-26T07:57:28.313Z,49.63
2023-03-26T07:58:28.261Z,51.56
2023-03-26T07:59:28.238Z,52.53
2023-03-26T08:00:28.235Z,51.40
2023-03-26T08:01:28.232Z,51.08
2023-03-26T08:02:28.252Z,50.11
2023-03-26T08:03:28.274Z,51.88
2023-03-26T08:04:28.325Z,50.92
2023-03-26T08:05:28.178Z,51.56
2023-03-26T08:06:28.179Z,47.37
2023-03-26T08:07:28.169Z,48.82
2023-03-26T08:08:28.150Z,50.92
2023-03-26T08:09:28.155Z,52.69
2023-03-26T08:10:28.157Z,50.27
2023-03-26T08:11:28.129Z,49.15
2023-03-26T08:12:28.116Z,48.18
2023-03-26T08:13:28.114Z,48.50
2023-03-26T08:14:28.084Z,48.34
2023-03-26T08:15:28.136Z,45.12
2023-03-26T08:16:28.083Z,50.11
2023-03-26T08:17:30.578Z,48.66
2023-03-26T08:18:28.061Z,54.46
2023-03-26T08:19:28.037Z,50.11
2023-03-26T08:20:28.008Z,49.63
2023-03-26T08:21:28.018Z,47.53
2023-03-26T08:22:28.000Z,51.24
2023-03-26T08:23:28.005Z,51.40
2023-03-26T08:24:27.956Z,48.18
2023-03-26T08:25:27.989Z,50.11
2023-03-26T08:26:28.021Z,51.72
2023-03-26T08:27:27.955Z,50.27
2023-03-26T08:28:27.948Z,48.66
2023-03-26T08:29:27.968Z,47.05
2023-03-26T08:30:27.897Z,48.34
2023-03-26T08:31:27.925Z,51.56
2023-03-26T08:32:27.937Z,49.47
2023-03-26T08:33:27.885Z,51.08
2023-03-26T08:34:27.849Z,48.34
2023-03-26T08:35:27.883Z,48.18
2023-03-26T08:36:27.835Z,50.76
2023-03-26T08:37:27.891Z,48.66
2023-03-26T08:38:27.804Z,48.82
2023-03-26T08:39:27.808Z,49.15
2023-03-26T08:40:27.801Z,48.98
2023-03-26T08:41:27.770Z,50.60
2023-03-26T08:42:27.792Z,52.69
2023-03-26T08:43:27.738Z,49.15
2023-03-26T08:44:27.730Z,49.95
2023-03-26T08:45:27.730Z,47.05
2023-03-26T08:46:27.783Z,50.27
2023-03-26T08:47:27.703Z,50.60
2023-03-26T08:48:27.719Z,50.43
2023-03-26T08:49:29.543Z,52.69
2023-03-26T08:50:27.688Z,50.60
2023-03-26T08:51:27.680Z,50.92
2023-03-26T08:52:27.669Z,48.98
2023-03-26T08:53:27.632Z,50.43
2023-03-26T08:54:27.642Z,48.98
2023-03-26T08:55:27.618Z,51.24
2023-03-26T08:56:27.602Z,45.12
2023-03-26T08:57:27.601Z,49.31
2023-03-26T08:58:27.582Z,52.05
2023-03-26T08:59:27.609Z,50.76
2023-03-26T09:00:27.568Z,49.15
2023-03-26T09:01:27.598Z,49.79
2023-03-26T09:02:27.568Z,49.31
2023-03-26T09:03:27.535Z,49.95
2023-03-26T09:04:27.518Z,48.66
2023-03-26T09:05:27.496Z,52.53
2023-03-26T09:06:27.499Z,51.08
2023-03-26T09:07:27.497Z,53.17
2023-03-26T09:08:59.502Z,49.95
2023-03-26T09:09:27.498Z,49.79
2023-03-26T09:10:27.478Z,49.15
2023-03-26T09:11:27.427Z,51.08
2023-03-26T09:12:27.451Z,49.79
2023-03-26T09:13:27.416Z,50.60
2023-03-26T09:14:27.396Z,48.82
2023-03-26T09:15:27.398Z,49.47
2023-03-26T09:16:27.460Z,50.60
2023-03-26T09:17:27.856Z,50.11
2023-03-26T09:18:27.382Z,49.79
2023-03-26T09:19:27.347Z,49.47
2023-03-26T09:20:27.361Z,52.05
2023-03-26T09:21:27.329Z,50.43
2023-03-26T09:22:27.292Z,52.37
2023-03-26T09:23:27.323Z,49.47
2023-03-26T09:24:28.287Z,48.98
2023-03-26T09:25:27.265Z,50.76
2023-03-26T09:26:27.276Z,52.05
2023-03-26T09:27:27.262Z,52.69
2023-03-26T09:28:29.956Z,51.88
2023-03-26T09:29:27.259Z,50.27
2023-03-26T09:30:27.232Z,50.11
2023-03-26T09:31:27.258Z,50.76
2023-03-26T09:32:27.222Z,47.86
2023-03-26T09:33:27.195Z,47.70
2023-03-26T09:34:27.217Z,49.95
2023-03-26T09:35:27.203Z,51.08
2023-03-26T09:36:27.209Z,50.60
2023-03-26T09:37:27.163Z,49.63
2023-03-26T09:38:27.116Z,52.05
2023-03-26T09:39:27.127Z,49.47
2023-03-26T09:40:27.096Z,50.92
2023-03-26T09:41:27.113Z,48.82
2023-03-26T09:42:27.086Z,50.76
2023-03-26T09:43:27.063Z,52.85
2023-03-26T09:44:27.058Z,53.01
2023-03-26T09:45:27.077Z,50.60
2023-03-26T09:46:27.043Z,50.11
2023-03-26T09:47:27.073Z,52.05
2023-03-26T09:48:27.057Z,52.53
2023-03-26T09:49:27.031Z,48.82
2023-03-26T09:50:27.000Z,50.27
2023-03-26T09:51:27.773Z,52.05
2023-03-26T09:52:26.998Z,49.31
2023-03-26T09:53:26.992Z,50.60
2023-03-26T09:54:26.951Z,52.21
2023-03-26T09:55:26.952Z,52.37
2023-03-26T09:56:26.907Z,49.47
2023-03-26T09:57:26.940Z,52.21
2023-03-26T09:58:26.943Z,50.27
2023-03-26T09:59:26.893Z,49.47
2023-03-26T10:00:26.905Z,52.05
2023-03-26T10:01:26.893Z,53.01
2023-03-26T10:02:45.904Z,51.24
2023-03-26T10:03:27.854Z,51.56
2023-03-26T10:04:27.873Z,51.72
2023-03-26T10:05:26.829Z,48.82
2023-03-26T10:06:26.785Z,50.43
2023-03-26T10:07:26.800Z,51.56
2023-03-26T10:08:26.816Z,52.69
2023-03-26T10:09:26.793Z,51.40
2023-03-26T10:10:26.763Z,50.92
2023-03-26T10:11:26.761Z,51.72
2023-03-26T10:12:26.739Z,53.33
2023-03-26T10:13:26.767Z,51.88
2023-03-26T10:14:26.734Z,52.85
2023-03-26T10:15:26.723Z,52.37
2023-03-26T10:16:26.731Z,49.47
2023-03-26T10:17:26.714Z,54.62
2023-03-26T10:18:29.561Z,49.95
2023-03-26T10:19:26.673Z,50.76
2023-03-26T10:20:26.645Z,49.47
2023-03-26T10:21:28.057Z,51.88
2023-03-26T10:22:26.675Z,51.08
2023-03-26T10:23:26.658Z,50.92
2023-03-26T10:24:26.604Z,49.63
2023-03-26T10:25:26.593Z,50.92
2023-03-26T10:26:26.600Z,52.37
2023-03-26T10:27:26.569Z,51.56
2023-03-26T10:28:26.568Z,53.66
2023-03-26T10:29:26.567Z,50.11
2023-03-26T10:30:26.569Z,51.56
2023-03-26T10:31:26.562Z,50.76
2023-03-26T10:32:26.523Z,51.08
2023-03-26T10:33:26.514Z,50.43
2023-03-26T10:34:28.134Z,49.31
2023-03-26T10:35:26.516Z,50.92
2023-03-26T10:36:26.458Z,50.60
2023-03-26T10:37:26.458Z,52.53
2023-03-26T10:38:26.524Z,52.05
2023-03-26T10:39:35.915Z,52.21
2023-03-26T10:40:27.396Z,51.40
2023-03-26T10:41:26.417Z,52.85
2023-03-26T10:42:26.426Z,52.37
2023-03-26T10:43:26.385Z,52.85
2023-03-26T10:44:26.412Z,51.88
2023-03-26T10:45:26.358Z,53.01
2023-03-26T10:46:26.364Z,53.33
2023-03-26T10:47:26.352Z,52.05
2023-03-26T10:48:26.351Z,53.01
2023-03-26T10:49:26.339Z,52.21
2023-03-26T10:50:26.283Z,53.17
2023-03-26T10:51:26.293Z,54.62
2023-03-26T10:52:26.306Z,52.21
2023-03-26T10:53:26.302Z,52.21
2023-03-26T10:54:26.247Z,52.05
2023-03-26T10:55:26.247Z,54.30
2023-03-26T10:56:26.282Z,53.50
2023-03-26T10:57:26.232Z,53.01
2023-03-26T10:58:26.570Z,53.50
2023-03-26T10:59:27.054Z,53.82
2023-03-26T11:00:26.206Z,56.56
2023-03-26T11:01:26.203Z,55.43
2023-03-26T11:02:29.450Z,58.65
2023-03-26T11:03:26.169Z,56.88
2023-03-26T11:04:26.142Z,58.17
2023-03-26T11:05:26.150Z,56.72
2023-03-26T11:06:26.159Z,56.40
2023-03-26T11:07:26.557Z,57.52
2023-03-26T11:08:31.745Z,56.88
2023-03-26T11:09:27.097Z,55.75
2023-03-26T11:10:26.080Z,55.59
2023-03-26T11:11:26.069Z,56.88
2023-03-26T11:12:28.459Z,56.88
2023-03-26T11:13:26.068Z,57.85
2023-03-26T11:14:34.465Z,58.49
2023-03-26T11:15:28.269Z,57.20
2023-03-26T11:16:26.018Z,55.75
2023-03-26T11:17:40.864Z,54.30
2023-03-26T11:18:27.027Z,56.07
2023-03-26T11:19:25.998Z,56.24
2023-03-26T11:20:25.953Z,57.36
2023-03-26T11:21:26.021Z,57.20
2023-03-26T11:22:25.985Z,54.46
2023-03-26T11:23:25.971Z,57.20
2023-03-26T11:24:25.946Z,57.20
2023-03-26T11:25:25.920Z,59.46
2023-03-26T11:26:25.926Z,57.20
2023-03-26T11:27:26.577Z,55.27
2023-03-26T11:28:26.868Z,54.79
2023-03-26T11:29:31.057Z,58.17
2023-03-26T11:30:26.877Z,55.27
2023-03-26T11:31:25.911Z,58.49
2023-03-26T11:32:25.880Z,55.11
2023-03-26T11:33:25.828Z,56.24
2023-03-26T11:34:26.827Z,56.24
2023-03-26T11:35:41.025Z,54.62
2023-03-26T11:36:26.895Z,56.88
2023-03-26T11:37:25.809Z,58.17
2023-03-26T11:38:25.751Z,57.52
2023-03-26T11:39:25.784Z,58.65
2023-03-26T11:40:25.785Z,57.52
2023-03-26T11:41:25.739Z,59.14
2023-03-26T11:42:25.821Z,58.01
2023-03-26T11:43:25.735Z,55.91
2023-03-26T11:44:25.691Z,57.20
2023-03-26T11:45:25.718Z,58.65
2023-03-26T11:46:25.758Z,58.17
2023-03-26T11:47:25.715Z,57.36
2023-03-26T11:48:25.694Z,57.04
2023-03-26T11:49:25.670Z,57.20
2023-03-26T11:50:25.638Z,58.17
2023-03-26T11:51:25.649Z,58.49
2023-03-26T11:52:25.647Z,58.01
2023-03-26T11:53:25.609Z,58.97
2023-03-26T11:54:25.578Z,57.04
2023-03-26T11:55:25.638Z,58.01
2023-03-26T11:56:25.579Z,57.52
2023-03-26T11:57:25.567Z,58.17
2023-03-26T11:58:25.580Z,57.52
2023-03-26T11:59:25.561Z,59.94
2023-03-26T12:00:25.517Z,58.01
2023-03-26T12:01:25.521Z,59.30
2023-03-26T12:02:25.594Z,59.30
2023-03-26T12:03:25.496Z,58.81
2023-03-26T12:04:25.500Z,57.52
2023-03-26T12:05:25.610Z,58.97
2023-03-26T12:06:25.455Z,56.40
2023-03-26T12:07:25.484Z,57.04
2023-03-26T12:08:25.499Z,59.30
2023-03-26T12:09:25.428Z,59.30
2023-03-26T12:10:25.415Z,58.49
2023-03-26T12:11:25.446Z,57.04
2023-03-26T12:12:25.390Z,58.65
2023-03-26T12:13:25.384Z,59.14
2023-03-26T12:14:25.404Z,58.01
2023-03-26T12:15:25.380Z,57.20
2023-03-26T12:16:25.345Z,57.20
2023-03-26T12:17:31.314Z,58.01
2023-03-26T12:18:26.374Z,56.72
2023-03-26T12:19:25.310Z,56.40
2023-03-26T12:20:25.394Z,56.56
2023-03-26T12:21:25.317Z,55.91
2023-03-26T12:22:25.279Z,57.52
2023-03-26T12:23:25.275Z,56.07
2023-03-26T12:24:25.308Z,55.43
2023-03-26T12:25:25.306Z,55.59
2023-03-26T12:26:25.247Z,52.85
2023-03-26T12:27:25.240Z,54.30
2023-03-26T12:28:25.251Z,56.24
2023-03-26T12:29:25.217Z,56.07
2023-03-26T12:30:25.215Z,53.01
2023-03-26T12:31:25.259Z,54.14
2023-03-26T12:32:29.757Z,54.62
2023-03-26T12:33:27.236Z,53.50
2023-03-26T12:34:25.184Z,49.79
2023-03-26T12:35:25.223Z,53.98
2023-03-26T12:36:25.142Z,53.82
2023-03-26T12:37:25.127Z,50.76
2023-03-26T12:38:25.151Z,53.50
2023-03-26T12:40:10.275Z,52.53
2023-03-26T12:40:27.167Z,51.88
2023-03-26T12:42:36.679Z,52.69
2023-03-26T12:44:47.373Z,50.92
2023-03-26T12:44:47.906Z,48.02
2023-03-26T12:44:50.183Z,55.59
2023-03-26T12:45:26.548Z,51.08
2023-03-26T12:47:58.514Z,53.66
2023-03-26T12:47:59.507Z,53.01
2023-03-26T12:48:26.074Z,51.88
2023-03-26T12:49:25.060Z,50.92
2023-03-26T12:50:34.144Z,52.05
2023-03-26T12:51:26.044Z,51.88
2023-03-26T12:52:24.957Z,53.01